sensor_id;sensor_type;location;lat;lon;timestamp;pressure;altitude;pressure_sealevel;temperature;humidity
67697;BME280;54486;51.442;6.778;2023-07-31T00:00:52;100852.16;;;16.60;100.00
67697;BME280;54486;51.442;6.778;2023-07-31T00:03:21;100846.97;;;16.57;100.00
67697;BME280;54486;51.442;6.778;2023-07-31T00:05:48;100834.75;;;16.56;100.00
67697;BME280;54486;51.442;6.778;2023-07-31T00:08:15;100846.00;;;16.59;100.00
67697;BME280;54486;51.442;6.778;2023-07-31T00:10:42;100848.53;;;16.64;100.00
67697;BME280;54486;51.442;6.778;2023-07-31T00:13:12;100838.16;;;16.58;100.00
67697;BME280;54486;51.442;6.778;2023-07-31T00:15:39;100845.09;;;16.62;100.00
67697;BME280;54486;51.442;6.778;2023-07-31T00:18:06;100834.75;;;16.56;100.00
67697;BME280;54486;51.442;6.778;2023-07-31T00:20:33;100833.00;;;16.55;100.00
67697;BME280;54486;51.442;6.778;2023-07-31T00:23:00;100829.47;;;16.54;100.00
67697;BME280;54486;51.442;6.778;2023-07-31T00:25:27;100834.81;;;16.53;100.00
67697;BME280;54486;51.442;6.778;2023-07-31T00:27:56;100842.63;;;16.56;100.00
67697;BME280;54486;51.442;6.778;2023-07-31T00:30:24;100834.75;;;16.56;100.00
67697;BME280;54486;51.442;6.778;2023-07-31T00:32:52;100832.03;;;16.57;100.00
67697;BME280;54486;51.442;6.778;2023-07-31T00:35:20;100832.00;;;16.59;100.00
67697;BME280;54486;51.442;6.778;2023-07-31T00:37:47;100830.19;;;16.61;100.00
67697;BME280;54486;51.442;6.778;2023-07-31T00:40:14;100822.31;;;16.59;100.00
67697;BME280;54486;51.442;6.778;2023-07-31T00:42:42;100831.06;;;16.60;100.00
67697;BME280;54486;51.442;6.778;2023-07-31T00:45:10;100829.38;;;16.59;100.00
67697;BME280;54486;51.442;6.778;2023-07-31T00:47:37;100829.28;;;16.62;100.00
67697;BME280;54486;51.442;6.778;2023-07-31T00:50:07;100832.72;;;16.64;100.00
67697;BME280;54486;51.442;6.778;2023-07-31T00:52:36;100829.19;;;16.65;100.00
67697;BME280;54486;51.442;6.778;2023-07-31T00:55:07;100830.06;;;16.64;100.00
67697;BME280;54486;51.442;6.778;2023-07-31T00:57:36;100837.00;;;16.66;100.00
67697;BME280;54486;51.442;6.778;2023-07-31T01:00:04;100829.06;;;16.68;100.00
67697;BME280;54486;51.442;6.778;2023-07-31T01:02:32;100828.22;;;16.67;100.00
67697;BME280;54486;51.442;6.778;2023-07-31T01:05:01;100828.25;;;16.66;100.00
67697;BME280;54486;51.442;6.778;2023-07-31T01:08:05;100829.06;;;16.68;100.00
67697;BME280;54486;51.442;6.778;2023-07-31T01:10:41;100823.72;;;16.71;100.00
67697;BME280;54486;51.442;6.778;2023-07-31T01:13:11;100826.38;;;16.69;100.00
67697;BME280;54486;51.442;6.778;2023-07-31T01:15:38;100828.09;;;16.72;100.00
67697;BME280;54486;51.442;6.778;2023-07-31T01:18:05;100817.53;;;16.72;100.00
67697;BME280;54486;51.442;6.778;2023-07-31T01:20:34;100825.44;;;16.72;100.00
67697;BME280;54486;51.442;6.778;2023-07-31T01:31:04;100825.44;;;16.72;100.00
67697;BME280;54486;51.442;6.778;2023-07-31T01:33:35;100830.78;;;16.69;100.00
67697;BME280;54486;51.442;6.778;2023-07-31T01:36:04;100818.44;;;16.71;100.00
67697;BME280;54486;51.442;6.778;2023-07-31T01:38:31;100831.63;;;16.71;100.00
67697;BME280;54486;51.442;6.778;2023-07-31T01:40:59;100821.97;;;16.70;100.00
67697;BME280;54486;51.442;6.778;2023-07-31T01:43:26;100818.53;;;16.68;100.00
67697;BME280;54486;51.442;6.778;2023-07-31T01:45:54;100821.88;;;16.73;100.00
67697;BME280;54486;51.442;6.778;2023-07-31T01:48:21;100825.34;;;16.75;100.00
67697;BME280;54486;51.442;6.778;2023-07-31T01:50:48;100814.97;;;16.69;100.00
67697;BME280;54486;51.442;6.778;2023-07-31T01:53:15;100810.56;;;16.69;100.00
67697;BME280;54486;51.442;6.778;2023-07-31T01:55:42;100806.16;;;16.70;100.00
67697;BME280;54486;51.442;6.778;2023-07-31T01:58:09;100804.53;;;16.66;100.00
67697;BME280;54486;51.442;6.778;2023-07-31T02:00:37;100808.09;;;16.65;100.00
67697;BME280;54486;51.442;6.778;2023-07-31T02:03:03;100809.69;;;16.69;100.00
67697;BME280;54486;51.442;6.778;2023-07-31T02:05:31;100805.47;;;16.65;100.00
67697;BME280;54486;51.442;6.778;2023-07-31T02:07:59;100814.06;;;16.70;100.00
67697;BME280;54486;51.442;6.778;2023-07-31T02:10:26;100802.72;;;16.68;100.00
67697;BME280;54486;51.442;6.778;2023-07-31T02:12:53;100802.72;;;16.68;100.00
67697;BME280;54486;51.442;6.778;2023-07-31T02:15:20;100808.00;;;16.68;100.00
67697;BME280;54486;51.442;6.778;2023-07-31T02:17:48;100798.22;;;16.71;100.00
67697;BME280;54486;51.442;6.778;2023-07-31T02:20:15;100801.75;;;16.70;100.00
67697;BME280;54486;51.442;6.778;2023-07-31T02:22:42;100804.38;;;16.72;100.00
67697;BME280;54486;51.442;6.778;2023-07-31T02:25:10;100797.34;;;16.71;100.00
67697;BME280;54486;51.442;6.778;2023-07-31T02:27:36;100800.00;;;16.71;100.00
67697;BME280;54486;51.442;6.778;2023-07-31T02:30:04;100801.72;;;16.72;100.00
67697;BME280;54486;51.442;6.778;2023-07-31T02:32:31;100794.56;;;16.75;100.00
67697;BME280;54486;51.442;6.778;2023-07-31T02:34:58;100783.22;;;16.73;100.00
67697;BME280;54486;51.442;6.778;2023-07-31T02:37:25;100789.34;;;16.74;100.00
67697;BME280;54486;51.442;6.778;2023-07-31T02:39:52;100787.59;;;16.74;100.00
67697;BME280;54486;51.442;6.778;2023-07-31T02:42:22;100793.00;;;16.70;100.00
67697;BME280;54486;51.442;6.778;2023-07-31T02:44:49;100786.81;;;16.71;100.00
67697;BME280;54486;51.442;6.778;2023-07-31T02:47:18;100797.34;;;16.71;100.00
67697;BME280;54486;51.442;6.778;2023-07-31T02:49:45;100777.81;;;16.78;100.00
67697;BME280;54486;51.442;6.778;2023-07-31T02:52:12;100779.50;;;16.79;100.00
67697;BME280;54486;51.442;6.778;2023-07-31T02:54:39;100770.81;;;16.77;100.00
67697;BME280;54486;51.442;6.778;2023-07-31T02:57:07;100773.38;;;16.78;100.00
67697;BME280;54486;51.442;6.778;2023-07-31T02:59:34;100774.25;;;16.79;100.00
67697;BME280;54486;51.442;6.778;2023-07-31T03:02:02;100770.84;;;16.75;100.00
67697;BME280;54486;51.442;6.778;2023-07-31T03:04:30;100772.44;;;16.81;100.00
67697;BME280;54486;51.442;6.778;2023-07-31T03:06:57;100767.16;;;16.81;100.00
67697;BME280;54486;51.442;6.778;2023-07-31T03:09:24;100790.91;;;16.79;100.00
67697;BME280;54486;51.442;6.778;2023-07-31T03:11:51;100767.00;;;16.85;100.00
67697;BME280;54486;51.442;6.778;2023-07-31T03:14:18;100766.13;;;16.85;100.00
67697;BME280;54486;51.442;6.778;2023-07-31T03:16:45;100772.34;;;16.84;100.00
67697;BME280;54486;51.442;6.778;2023-07-31T03:19:12;100763.50;;;16.85;100.00
67697;BME280;54486;51.442;6.778;2023-07-31T03:21:40;100772.22;;;16.87;100.00
67697;BME280;54486;51.442;6.778;2023-07-31T03:24:07;100766.84;;;16.90;100.00
67697;BME280;54486;51.442;6.778;2023-07-31T03:26:35;100763.31;;;16.91;100.00
67697;BME280;54486;51.442;6.778;2023-07-31T03:29:08;100759.75;;;16.92;100.00
67697;BME280;54486;51.442;6.778;2023-07-31T03:31:36;100761.38;;;16.96;100.00
67697;BME280;54486;51.442;6.778;2023-07-31T03:34:06;100760.63;;;16.92;100.00
67697;BME280;54486;51.442;6.778;2023-07-31T03:36:33;100767.56;;;16.95;100.00
67697;BME280;54486;51.442;6.778;2023-07-31T03:39:01;100762.28;;;16.95;100.00
67697;BME280;54486;51.442;6.778;2023-07-31T03:41:27;100757.72;;;17.00;100.00
67697;BME280;54486;51.442;6.778;2023-07-31T03:43:55;100767.44;;;16.98;100.00
67697;BME280;54486;51.442;6.778;2023-07-31T03:46:25;100762.03;;;17.03;100.00
67697;BME280;54486;51.442;6.778;2023-07-31T03:48:52;100761.16;;;17.02;100.00
67697;BME280;54486;51.442;6.778;2023-07-31T03:51:19;100760.97;;;17.08;100.00
67697;BME280;54486;51.442;6.778;2023-07-31T03:53:46;100761.78;;;17.10;100.00
67697;BME280;54486;51.442;6.778;2023-07-31T03:56:13;100752.16;;;17.09;100.00
67697;BME280;54486;51.442;6.778;2023-07-31T03:58:40;100755.47;;;17.14;100.00
67697;BME280;54486;51.442;6.778;2023-07-31T04:01:08;100745.03;;;17.11;100.00
67697;BME280;54486;51.442;6.778;2023-07-31T04:03:36;100748.50;;;17.13;100.00
67697;BME280;54486;51.442;6.778;2023-07-31T04:06:04;100748.50;;;17.13;100.00
67697;BME280;54486;51.442;6.778;2023-07-31T04:08:31;100741.38;;;17.15;100.00
67697;BME280;54486;51.442;6.778;2023-07-31T04:10:59;100741.38;;;17.15;100.00
67697;BME280;54486;51.442;6.778;2023-07-31T04:13:29;100741.38;;;17.15;100.00
67697;BME280;54486;51.442;6.778;2023-07-31T04:15:57;100738.66;;;17.17;100.00
67697;BME280;54486;51.442;6.778;2023-07-31T04:18:25;100734.13;;;17.22;100.00
67697;BME280;54486;51.442;6.778;2023-07-31T04:20:52;100723.59;;;17.20;100.00
67697;BME280;54486;51.442;6.778;2023-07-31T04:23:19;100723.59;;;17.20;100.00
67697;BME280;54486;51.442;6.778;2023-07-31T04:25:47;100730.50;;;17.24;100.00
67697;BME280;54486;51.442;6.778;2023-07-31T04:28:14;100714.78;;;17.21;100.00
67697;BME280;54486;51.442;6.778;2023-07-31T04:30:42;100718.34;;;17.20;100.00
67697;BME280;54486;51.442;6.778;2023-07-31T04:33:09;100723.72;;;17.17;100.00
67697;BME280;54486;51.442;6.778;2023-07-31T04:35:37;100725.44;;;17.18;100.00
67697;BME280;54486;51.442;6.778;2023-07-31T04:38:04;100721.84;;;17.21;100.00
67697;BME280;54486;51.442;6.778;2023-07-31T04:40:31;100717.44;;;17.21;100.00
67697;BME280;54486;51.442;6.778;2023-07-31T04:42:58;100712.00;;;17.26;100.00
67697;BME280;54486;51.442;6.778;2023-07-31T04:45:25;100713.81;;;17.24;100.00
67697;BME280;54486;51.442;6.778;2023-07-31T04:47:52;100718.09;;;17.26;100.00
67697;BME280;54486;51.442;6.778;2023-07-31T04:50:19;100708.06;;;17.37;100.00
67697;BME280;54486;51.442;6.778;2023-07-31T04:52:46;100711.03;;;17.28;100.00
67697;BME280;54486;51.442;6.778;2023-07-31T04:55:13;100705.75;;;17.28;100.00
67697;BME280;54486;51.442;6.778;2023-07-31T04:57:41;100699.66;;;17.26;100.00
67697;BME280;54486;51.442;6.778;2023-07-31T05:00:08;100693.34;;;17.30;100.00
67697;BME280;54486;51.442;6.778;2023-07-31T05:02:35;100692.44;;;17.31;100.00
67697;BME280;54486;51.442;6.778;2023-07-31T05:05:02;100683.66;;;17.31;100.00
67697;BME280;54486;51.442;6.778;2023-07-31T05:07:30;100689.81;;;17.31;100.00
67697;BME280;54486;51.442;6.778;2023-07-31T05:09:57;100679.25;;;17.31;100.00
67697;BME280;54486;51.442;6.778;2023-07-31T05:12:25;100680.88;;;17.35;100.00
67697;BME280;54486;51.442;6.778;2023-07-31T05:14:52;100676.28;;;17.40;100.00
67697;BME280;54486;51.442;6.778;2023-07-31T05:17:19;100670.97;;;17.42;100.00
67697;BME280;54486;51.442;6.778;2023-07-31T05:19:45;100669.03;;;17.45;100.00
67697;BME280;54486;51.442;6.778;2023-07-31T05:22:13;100673.19;;;17.53;100.00
67697;BME280;54486;51.442;6.778;2023-07-31T05:24:40;100659.13;;;17.52;100.00
67697;BME280;54486;51.442;6.778;2023-07-31T05:27:09;100668.84;;;17.52;100.00
67697;BME280;54486;51.442;6.778;2023-07-31T05:29:38;100664.47;;;17.51;100.00
67697;BME280;54486;51.442;6.778;2023-07-31T05:32:05;100660.81;;;17.55;100.00
67697;BME280;54486;51.442;6.778;2023-07-31T05:34:33;100666.09;;;17.55;100.00
67697;BME280;54486;51.442;6.778;2023-07-31T05:37:00;100667.81;;;17.56;100.00
67697;BME280;54486;51.442;6.778;2023-07-31T05:39:30;100666.09;;;17.55;100.00
67697;BME280;54486;51.442;6.778;2023-07-31T05:41:57;100659.09;;;17.54;100.00
67697;BME280;54486;51.442;6.778;2023-07-31T05:44:24;100653.81;;;17.54;100.00
67697;BME280;54486;51.442;6.778;2023-07-31T05:46:51;100652.00;;;17.56;100.00
67697;BME280;54486;51.442;6.778;2023-07-31T05:49:19;100652.84;;;17.56;100.00
67697;BME280;54486;51.442;6.778;2023-07-31T05:51:46;100656.25;;;17.60;100.00
67697;BME280;54486;51.442;6.778;2023-07-31T05:54:16;100642.25;;;17.58;100.00
67697;BME280;54486;51.442;6.778;2023-07-31T05:56:43;100651.88;;;17.59;100.00
67697;BME280;54486;51.442;6.778;2023-07-31T05:59:12;100638.75;;;17.57;100.00
67697;BME280;54486;51.442;6.778;2023-07-31T06:01:40;100631.72;;;17.58;100.00
67697;BME280;54486;51.442;6.778;2023-07-31T06:04:07;100635.09;;;17.61;100.00
67697;BME280;54486;51.442;6.778;2023-07-31T06:06:35;100637.78;;;17.60;100.00
67697;BME280;54486;51.442;6.778;2023-07-31T06:09:02;100627.19;;;17.61;100.00
67697;BME280;54486;51.442;6.778;2023-07-31T06:11:30;100633.28;;;17.62;100.00
67697;BME280;54486;51.442;6.778;2023-07-31T06:13:57;100628.75;;;17.65;100.00
67697;BME280;54486;51.442;6.778;2023-07-31T06:16:24;100634.22;;;17.61;100.00
67697;BME280;54486;51.442;6.778;2023-07-31T06:18:52;100636.97;;;17.58;100.00
67697;BME280;54486;51.442;6.778;2023-07-31T06:21:19;100633.69;;;17.51;100.00
67697;BME280;54486;51.442;6.778;2023-07-31T06:23:46;100632.81;;;17.51;100.00
67697;BME280;54486;51.442;6.778;2023-07-31T06:26:13;100649.69;;;17.46;100.00
67697;BME280;54486;51.442;6.778;2023-07-31T06:28:41;100648.03;;;17.44;100.00
67697;BME280;54486;51.442;6.778;2023-07-31T06:31:08;100630.53;;;17.41;100.00
67697;BME280;54486;51.442;6.778;2023-07-31T06:33:36;100642.91;;;17.39;100.00
67697;BME280;54486;51.442;6.778;2023-07-31T06:36:03;100628.00;;;17.38;100.00
67697;BME280;54486;51.442;6.778;2023-07-31T06:38:30;100628.00;;;17.38;100.00
67697;BME280;54486;51.442;6.778;2023-07-31T06:40:57;100627.16;;;17.38;100.00
67697;BME280;54486;51.442;6.778;2023-07-31T06:43:25;100627.03;;;17.41;100.00
67697;BME280;54486;51.442;6.778;2023-07-31T06:45:56;100634.97;;;17.39;100.00
67697;BME280;54486;51.442;6.778;2023-07-31T06:48:23;100633.69;;;17.51;100.00
67697;BME280;54486;51.442;6.778;2023-07-31T06:50:50;100633.06;;;17.44;100.00
67697;BME280;54486;51.442;6.778;2023-07-31T06:53:17;100633.16;;;17.41;100.00
67697;BME280;54486;51.442;6.778;2023-07-31T06:55:46;100636.59;;;17.43;100.00
67697;BME280;54486;51.442;6.778;2023-07-31T06:58:15;100634.88;;;17.42;100.00
67697;BME280;54486;51.442;6.778;2023-07-31T07:00:43;100638.44;;;17.41;100.00
67697;BME280;54486;51.442;6.778;2023-07-31T07:03:10;100638.44;;;17.41;100.00
67697;BME280;54486;51.442;6.778;2023-07-31T07:05:37;100627.16;;;17.38;100.00
67697;BME280;54486;51.442;6.778;2023-07-31T07:08:04;100636.72;;;17.40;100.00
67697;BME280;54486;51.442;6.778;2023-07-31T07:10:31;100629.72;;;17.39;100.00
67697;BME280;54486;51.442;6.778;2023-07-31T07:12:59;100622.84;;;17.35;100.00
67697;BME280;54486;51.442;6.778;2023-07-31T07:15:26;100630.13;;;17.29;100.00
67697;BME280;54486;51.442;6.778;2023-07-31T07:17:53;100622.97;;;17.32;100.00
67697;BME280;54486;51.442;6.778;2023-07-31T07:20:20;100626.50;;;17.31;100.00
67697;BME280;54486;51.442;6.778;2023-07-31T07:22:49;100623.06;;;17.29;100.00
67697;BME280;54486;51.442;6.778;2023-07-31T07:25:17;100612.63;;;17.26;100.00
67697;BME280;54486;51.442;6.778;2023-07-31T07:27:44;100609.06;;;17.27;100.00
67697;BME280;54486;51.442;6.778;2023-07-31T07:30:11;100607.97;;;17.33;100.00
67697;BME280;54486;51.442;6.778;2023-07-31T07:32:39;100617.78;;;17.29;100.00
67697;BME280;54486;51.442;6.778;2023-07-31T07:35:06;100609.19;;;17.24;100.00
67697;BME280;54486;51.442;6.778;2023-07-31T07:37:33;100611.72;;;17.27;100.00
67697;BME280;54486;51.442;6.778;2023-07-31T07:40:01;100612.75;;;17.23;100.00
67697;BME280;54486;51.442;6.778;2023-07-31T07:42:27;100615.34;;;17.25;100.00
67697;BME280;54486;51.442;6.778;2023-07-31T07:44:55;100602.19;;;17.23;100.00
67697;BME280;54486;51.442;6.778;2023-07-31T07:47:22;100623.28;;;17.23;100.00
67697;BME280;54486;51.442;6.778;2023-07-31T07:49:49;100611.28;;;17.16;100.00
67697;BME280;54486;51.442;6.778;2023-07-31T07:52:19;100609.44;;;17.18;100.00
67697;BME280;54486;51.442;6.778;2023-07-31T07:54:46;100611.38;;;17.13;100.00
67697;BME280;54486;51.442;6.778;2023-07-31T07:57:13;100600.97;;;17.10;100.00
67697;BME280;54486;51.442;6.778;2023-07-31T07:59:41;100608.00;;;17.10;100.00
67697;BME280;54486;51.442;6.778;2023-07-31T08:02:08;100605.47;;;17.07;100.00
67697;BME280;54486;51.442;6.778;2023-07-31T08:04:37;100610.78;;;17.05;100.00
67697;BME280;54486;51.442;6.778;2023-07-31T08:07:05;100598.25;;;17.12;100.00
67697;BME280;54486;51.442;6.778;2023-07-31T08:09:32;100590.84;;;17.21;100.00
67697;BME280;54486;51.442;6.778;2023-07-31T08:12:00;100590.75;;;17.24;100.00
67697;BME280;54486;51.442;6.778;2023-07-31T08:14:30;100586.13;;;17.29;100.00
67697;BME280;54486;51.442;6.778;2023-07-31T08:17:00;100589.72;;;17.28;100.00
67697;BME280;54486;51.442;6.778;2023-07-31T08:19:30;100581.22;;;17.20;100.00
67697;BME280;54486;51.442;6.778;2023-07-31T08:21:58;100589.81;;;17.25;100.00
67697;BME280;54486;51.442;6.778;2023-07-31T08:24:25;100586.72;;;17.14;100.00
67697;BME280;54486;51.442;6.778;2023-07-31T08:26:52;100580.81;;;17.08;100.00
67697;BME280;54486;51.442;6.778;2023-07-31T08:29:20;100583.53;;;17.06;100.00
67697;BME280;54486;51.442;6.778;2023-07-31T08:31:47;100579.91;;;17.09;100.00
67697;BME280;54486;51.442;6.778;2023-07-31T08:34:14;100578.94;;;17.11;100.00
67697;BME280;54486;51.442;6.778;2023-07-31T08:36:41;100578.75;;;17.16;100.00
67697;BME280;54486;51.442;6.778;2023-07-31T08:39:10;100576.16;;;17.14;100.00
67697;BME280;54486;51.442;6.778;2023-07-31T08:41:38;100584.09;;;17.14;100.00
67697;BME280;54486;51.442;6.778;2023-07-31T08:44:10;100583.41;;;17.09;100.00
67697;BME280;54486;51.442;6.778;2023-07-31T08:46:39;100579.94;;;17.07;100.00
67697;BME280;54486;51.442;6.778;2023-07-31T08:49:08;100578.88;;;17.13;100.00
67697;BME280;54486;51.442;6.778;2023-07-31T08:51:36;100581.31;;;17.17;100.00
67697;BME280;54486;51.442;6.778;2023-07-31T08:54:03;100577.91;;;17.15;100.00
67697;BME280;54486;51.442;6.778;2023-07-31T08:56:33;100582.53;;;17.09;100.00
67697;BME280;54486;51.442;6.778;2023-07-31T08:59:02;100587.94;;;17.06;100.00
67697;BME280;54486;51.442;6.778;2023-07-31T09:01:35;100588.16;;;17.00;100.00
67697;BME280;54486;51.442;6.778;2023-07-31T09:04:04;100590.59;;;17.04;100.00
67697;BME280;54486;51.442;6.778;2023-07-31T09:06:32;100585.13;;;17.10;100.00
67697;BME280;54486;51.442;6.778;2023-07-31T09:09:01;100590.59;;;17.04;100.00
67697;BME280;54486;51.442;6.778;2023-07-31T09:11:28;100577.31;;;17.07;100.00
67697;BME280;54486;51.442;6.778;2023-07-31T09:13:57;100581.69;;;17.08;100.00
67697;BME280;54486;51.442;6.778;2023-07-31T09:16:28;100587.59;;;17.15;100.00
67697;BME280;54486;51.442;6.778;2023-07-31T09:18:59;100584.66;;;17.22;100.00
67697;BME280;54486;51.442;6.778;2023-07-31T09:21:28;100577.56;;;17.24;100.00
67697;BME280;54486;51.442;6.778;2023-07-31T09:23:57;100587.38;;;17.42;100.00
67697;BME280;54486;51.442;6.778;2023-07-31T09:26:34;100573.28;;;17.43;100.00
67697;BME280;54486;51.442;6.778;2023-07-31T09:29:05;100569.63;;;17.48;100.00
67697;BME280;54486;51.442;6.778;2023-07-31T09:31:42;100574.16;;;17.44;100.00
67697;BME280;54486;51.442;6.778;2023-07-31T09:34:10;100571.22;;;17.52;100.00
67697;BME280;54486;51.442;6.778;2023-07-31T09:36:49;100562.75;;;17.67;100.00
67697;BME280;54486;51.442;6.778;2023-07-31T09:39:17;100560.09;;;17.67;100.00
67697;BME280;54486;51.442;6.778;2023-07-31T09:41:53;100560.22;;;17.64;100.00
67697;BME280;54486;51.442;6.778;2023-07-31T09:44:20;100560.09;;;17.67;100.00
67697;BME280;54486;51.442;6.778;2023-07-31T09:46:48;100558.25;;;17.69;100.00
67697;BME280;54486;51.442;6.778;2023-07-31T09:49:16;100558.50;;;17.63;100.00
67697;BME280;54486;51.442;6.778;2023-07-31T09:51:43;100558.50;;;17.63;100.00
67697;BME280;54486;51.442;6.778;2023-07-31T09:54:11;100556.75;;;17.62;100.00
67697;BME280;54486;51.442;6.778;2023-07-31T09:56:45;100551.50;;;17.62;100.00
67697;BME280;54486;51.442;6.778;2023-07-31T09:59:17;100555.81;;;17.64;100.00
67697;BME280;54486;51.442;6.778;2023-07-31T10:01:49;100550.53;;;17.64;100.00
67697;BME280;54486;51.442;6.778;2023-07-31T10:04:27;100558.25;;;17.69;100.00
67697;BME280;54486;51.442;6.778;2023-07-31T10:07:01;100549.72;;;17.62;100.00
67697;BME280;54486;51.442;6.778;2023-07-31T10:09:31;100554.94;;;17.64;100.00
67697;BME280;54486;51.442;6.778;2023-07-31T10:12:00;100549.41;;;17.70;100.00
67697;BME280;54486;51.442;6.778;2023-07-31T10:14:36;100554.81;;;17.67;100.00
67697;BME280;54486;51.442;6.778;2023-07-31T10:17:05;100548.44;;;17.72;100.00
67697;BME280;54486;51.442;6.778;2023-07-31T10:19:34;100551.16;;;17.71;100.00
67697;BME280;54486;51.442;6.778;2023-07-31T10:22:03;100557.22;;;17.73;100.00
67697;BME280;54486;51.442;6.778;2023-07-31T10:24:31;100537.88;;;17.72;100.00
67697;BME280;54486;51.442;6.778;2023-07-31T10:27:00;100542.16;;;17.75;100.00
67697;BME280;54486;51.442;6.778;2023-07-31T10:29:29;100548.56;;;17.69;100.00
67697;BME280;54486;51.442;6.778;2023-07-31T10:31:58;100541.78;;;17.84;100.00
67697;BME280;54486;51.442;6.778;2023-07-31T10:34:26;100543.94;;;17.96;100.00
67697;BME280;54486;51.442;6.778;2023-07-31T10:37:19;100541.66;;;18.09;100.00
67697;BME280;54486;51.442;6.778;2023-07-31T10:40:04;100542.00;;;18.21;100.00
67697;BME280;54486;51.442;6.778;2023-07-31T10:42:38;100550.16;;;18.35;100.00
67697;BME280;54486;51.442;6.778;2023-07-31T10:45:14;100541.06;;;18.42;100.00
67697;BME280;54486;51.442;6.778;2023-07-31T10:47:58;100553.50;;;18.40;100.00
67697;BME280;54486;51.442;6.778;2023-07-31T10:50:28;100538.28;;;18.45;100.00
67697;BME280;54486;51.442;6.778;2023-07-31T10:52:57;100546.09;;;18.48;100.00
67697;BME280;54486;51.442;6.778;2023-07-31T10:58:07;100542.66;;;18.46;100.00
67697;BME280;54486;51.442;6.778;2023-07-31T11:00:44;100535.00;;;18.40;100.00
67697;BME280;54486;51.442;6.778;2023-07-31T11:03:19;100538.75;;;18.35;100.00
67697;BME280;54486;51.442;6.778;2023-07-31T11:08:27;100520.59;;;18.27;100.00
67697;BME280;54486;51.442;6.778;2023-07-31T11:15:55;100535.50;;;18.48;100.00
67697;BME280;54486;51.442;6.778;2023-07-31T11:18:23;100522.72;;;18.60;100.00
67697;BME280;54486;51.442;6.778;2023-07-31T11:20:50;100540.97;;;18.66;100.00
67697;BME280;54486;51.442;6.778;2023-07-31T11:23:17;100533.94;;;18.65;100.00
67697;BME280;54486;51.442;6.778;2023-07-31T11:25:46;100542.28;;;18.76;100.00
67697;BME280;54486;51.442;6.778;2023-07-31T11:28:14;100535.75;;;18.83;100.00
67697;BME280;54486;51.442;6.778;2023-07-31T11:30:43;100536.84;;;18.79;100.00
67697;BME280;54486;51.442;6.778;2023-07-31T11:33:11;100521.91;;;18.78;100.00
67697;BME280;54486;51.442;6.778;2023-07-31T11:35:44;100525.47;;;18.77;100.00
67697;BME280;54486;51.442;6.778;2023-07-31T11:38:21;100511.31;;;18.78;100.00
67697;BME280;54486;51.442;6.778;2023-07-31T11:40:52;100527.47;;;18.72;100.00
67697;BME280;54486;51.442;6.778;2023-07-31T11:43:21;100531.53;;;18.60;100.00
67697;BME280;54486;51.442;6.778;2023-07-31T11:45:50;100531.72;;;18.56;100.00
67697;BME280;54486;51.442;6.778;2023-07-31T11:48:27;100535.66;;;18.45;100.00
67697;BME280;54486;51.442;6.778;2023-07-31T11:50:59;100526.94;;;18.43;100.00
67697;BME280;54486;51.442;6.778;2023-07-31T11:53:33;100532.50;;;18.37;100.00
67697;BME280;54486;51.442;6.778;2023-07-31T11:56:03;100531.63;;;18.37;100.00
67697;BME280;54486;51.442;6.778;2023-07-31T11:58:34;100535.00;;;18.40;100.00
67697;BME280;54486;51.442;6.778;2023-07-31T12:01:02;100524.56;;;18.37;100.00
67697;BME280;54486;51.442;6.778;2023-07-31T12:03:31;100539.88;;;18.29;100.00
67697;BME280;54486;51.442;6.778;2023-07-31T12:05:59;100527.97;;;18.19;100.00
67697;BME280;54486;51.442;6.778;2023-07-31T12:08:26;100536.97;;;18.15;100.00
67697;BME280;54486;51.442;6.778;2023-07-31T12:10:54;100536.25;;;18.12;100.00
67697;BME280;54486;51.442;6.778;2023-07-31T12:13:25;100527.59;;;18.08;100.00
67697;BME280;54486;51.442;6.778;2023-07-31T12:15:57;100525.72;;;18.10;100.00
67697;BME280;54486;51.442;6.778;2023-07-31T12:18:26;100521.25;;;18.12;100.00
67697;BME280;54486;51.442;6.778;2023-07-31T12:20:56;100520.13;;;18.18;100.00
67697;BME280;54486;51.442;6.778;2023-07-31T12:23:29;100516.78;;;18.34;100.00
67697;BME280;54486;51.442;6.778;2023-07-31T12:26:14;100504.56;;;18.52;100.00
67697;BME280;54486;51.442;6.778;2023-07-31T12:28:44;100510.28;;;18.62;100.00
67697;BME280;54486;51.442;6.778;2023-07-31T12:31:16;100496.63;;;18.91;100.00
67697;BME280;54486;51.442;6.778;2023-07-31T12:33:48;100492.69;;;19.18;100.00
67697;BME280;54486;51.442;6.778;2023-07-31T12:36:22;100498.63;;;19.23;100.00
67697;BME280;54486;51.442;6.778;2023-07-31T12:38:51;100493.03;;;19.29;100.00
67697;BME280;54486;51.442;6.778;2023-07-31T12:41:19;100498.78;;;19.20;100.00
67697;BME280;54486;51.442;6.778;2023-07-31T12:43:46;100495.47;;;19.15;100.00
67697;BME280;54486;51.442;6.778;2023-07-31T12:46:14;100497.50;;;19.10;100.00
67697;BME280;54486;51.442;6.778;2023-07-31T12:48:42;100504.50;;;19.11;100.00
67697;BME280;54486;51.442;6.778;2023-07-31T12:51:10;100489.84;;;19.04;100.00
67697;BME280;54486;51.442;6.778;2023-07-31T12:53:39;100492.78;;;18.98;100.00
67697;BME280;54486;51.442;6.778;2023-07-31T12:56:06;100491.19;;;18.94;100.00
67697;BME280;54486;51.442;6.778;2023-07-31T12:58:34;100497.41;;;18.93;100.00
67697;BME280;54486;51.442;6.778;2023-07-31T13:01:01;100481.53;;;18.93;100.00
67697;BME280;54486;51.442;6.778;2023-07-31T13:03:29;100484.19;;;18.93;100.00
67697;BME280;54486;51.442;6.778;2023-07-31T13:05:56;100463.41;;;19.04;100.00